Terminal Aerodrome Forecast
Issued by NWS

Home | Current Version | Previous Version | Text Only | Print | Product List | Glossary On
Versions: 1 2 3 4 5 6 7 8 9 10 11 12 13 14 15
190
FTUS42 KGSP 121139
TAFGMU
TAF
KGMU 121139Z 1212/1312 03006KT P6SM OVC090
     FM121800 00000KT P6SM BKN050
     FM122100 24007KT P6SM SCT050
     FM122300 26008KT P6SM SCT250
     FM130500 30006KT P6SM FEW250=

USA.gov is the U.S. government's official web portal to all federal, state and local government web resources and services.